createdAt,value
2018-03-18T00:00:52.283Z,0
2018-03-18T00:01:54.700Z,0
2018-03-18T00:02:57.116Z,0
2018-03-18T00:03:59.531Z,0
2018-03-18T00:05:01.948Z,0
2018-03-18T00:06:04.363Z,0
2018-03-18T00:07:06.773Z,0
2018-03-18T00:08:09.194Z,0
2018-03-18T00:09:11.602Z,0
2018-03-18T00:10:14.021Z,0
2018-03-18T00:11:16.449Z,0
2018-03-18T00:12:19.245Z,0
2018-03-18T00:13:21.660Z,0
2018-03-18T00:14:24.073Z,0
2018-03-18T00:15:26.780Z,0
2018-03-18T00:16:29.191Z,0
2018-03-18T00:17:31.607Z,0
2018-03-18T00:18:34.042Z,0
2018-03-18T00:19:36.492Z,0
2018-03-18T00:20:38.866Z,0
2018-03-18T00:21:41.568Z,0
2018-03-18T00:22:43.983Z,0
2018-03-18T00:23:46.399Z,0
2018-03-18T00:24:48.815Z,0
2018-03-18T00:25:51.220Z,0
2018-03-18T00:26:53.652Z,0
2018-03-18T00:27:56.352Z,0
2018-03-18T00:28:58.762Z,0
2018-03-18T00:30:01.184Z,0
2018-03-18T00:31:03.588Z,0
2018-03-18T00:32:06.006Z,0
2018-03-18T00:33:08.420Z,0
2018-03-18T00:34:10.825Z,0
2018-03-18T00:35:13.244Z,0
2018-03-18T00:36:15.660Z,0
2018-03-18T00:37:18.076Z,0
2018-03-18T00:38:20.785Z,0
2018-03-18T00:39:23.497Z,0
2018-03-18T00:40:25.900Z,0
2018-03-18T00:41:28.614Z,0
2018-03-18T00:42:31.037Z,0
2018-03-18T00:43:34.025Z,0
2018-03-18T00:44:36.712Z,0
2018-03-18T00:45:39.133Z,0
2018-03-18T00:46:41.547Z,0
2018-03-18T00:47:43.967Z,0
2018-03-18T00:48:46.672Z,0
2018-03-18T00:49:49.093Z,0
2018-03-18T00:50:51.497Z,0
2018-03-18T00:51:53.925Z,0
2018-03-18T00:52:56.336Z,0
2018-03-18T00:53:58.748Z,0
2018-03-18T00:55:01.475Z,0
2018-03-18T00:56:04.173Z,0
2018-03-18T00:57:07.154Z,0
2018-03-18T00:58:10.179Z,0
2018-03-18T00:59:12.585Z,0
2018-03-18T01:00:15.003Z,0
2018-03-18T01:01:17.428Z,0
2018-03-18T01:02:19.842Z,0
2018-03-18T01:03:22.265Z,0
2018-03-18T01:04:24.696Z,0
2018-03-18T01:05:27.389Z,0
2018-03-18T01:06:29.823Z,0
2018-03-18T01:07:32.237Z,0
2018-03-18T01:08:34.650Z,0
2018-03-18T01:09:37.070Z,0
2018-03-18T01:10:39.484Z,0
2018-03-18T01:11:41.899Z,0
2018-03-18T01:12:44.313Z,0
2018-03-18T01:13:46.727Z,0
2018-03-18T01:14:49.147Z,0
2018-03-18T01:15:51.555Z,0
2018-03-18T01:16:53.968Z,0
2018-03-18T01:17:56.392Z,0
2018-03-18T01:18:59.086Z,0
2018-03-18T01:20:01.504Z,0
2018-03-18T01:21:03.917Z,0
2018-03-18T01:22:06.617Z,0
2018-03-18T01:23:09.028Z,0
2018-03-18T01:24:11.450Z,0
2018-03-18T01:25:13.853Z,0
2018-03-18T01:26:16.272Z,0
2018-03-18T01:27:18.692Z,0
2018-03-18T01:28:21.104Z,0
2018-03-18T01:29:23.508Z,0
2018-03-18T01:30:25.928Z,0
2018-03-18T01:31:28.340Z,0
2018-03-18T01:32:30.765Z,0
2018-03-18T01:33:33.179Z,0
2018-03-18T01:34:35.589Z,0
2018-03-18T01:35:38.015Z,0
2018-03-18T01:36:40.719Z,0
2018-03-18T01:37:43.130Z,0
2018-03-18T01:38:45.859Z,0
2018-03-18T01:39:48.256Z,0
2018-03-18T01:40:50.958Z,0
2018-03-18T01:41:53.380Z,0
2018-03-18T01:42:55.793Z,0
2018-03-18T01:43:58.212Z,0
2018-03-18T01:45:00.624Z,0
2018-03-18T01:46:03.048Z,0
2018-03-18T01:47:05.464Z,0
2018-03-18T01:48:07.883Z,0
2018-03-18T01:49:10.319Z,0
2018-03-18T01:50:12.720Z,0
2018-03-18T01:51:15.431Z,0
2018-03-18T01:52:17.846Z,0
2018-03-18T01:53:20.540Z,0
2018-03-18T01:54:22.956Z,0
2018-03-18T01:55:25.375Z,0
2018-03-18T01:56:27.782Z,0
2018-03-18T01:57:30.192Z,0
2018-03-18T01:58:32.611Z,0
2018-03-18T01:59:35.026Z,0
2018-03-18T02:00:37.448Z,0
2018-03-18T02:01:39.862Z,0
2018-03-18T02:02:42.280Z,0
2018-03-18T02:03:44.700Z,0
2018-03-18T02:04:47.398Z,0
2018-03-18T02:05:49.819Z,0
2018-03-18T02:06:52.233Z,0
2018-03-18T02:07:54.654Z,0
2018-03-18T02:08:57.098Z,0
2018-03-18T02:09:59.767Z,0
2018-03-18T02:11:02.178Z,0
2018-03-18T02:12:04.896Z,0
2018-03-18T02:13:07.612Z,0
2018-03-18T02:14:10.032Z,0
2018-03-18T02:15:12.455Z,0
2018-03-18T02:16:15.148Z,0
2018-03-18T02:17:17.562Z,0
2018-03-18T02:18:19.983Z,0
2018-03-18T02:19:22.396Z,0
2018-03-18T02:20:24.817Z,0
2018-03-18T02:21:27.236Z,0
2018-03-18T02:22:29.633Z,0
2018-03-18T02:23:32.056Z,0
2018-03-18T02:24:34.465Z,0
2018-03-18T02:25:36.878Z,0
2018-03-18T02:26:39.581Z,0
2018-03-18T02:27:41.991Z,0
2018-03-18T02:28:44.403Z,0
2018-03-18T02:29:46.836Z,0
2018-03-18T02:30:49.244Z,0
2018-03-18T02:31:51.654Z,0
2018-03-18T02:32:54.370Z,0
2018-03-18T02:33:57.080Z,0
2018-03-18T02:34:59.495Z,0
2018-03-18T02:36:02.201Z,0
2018-03-18T02:37:04.610Z,0
2018-03-18T02:38:07.036Z,0
2018-03-18T02:39:09.737Z,0
2018-03-18T02:40:12.156Z,0
2018-03-18T02:41:14.560Z,0
2018-03-18T02:42:16.980Z,0
2018-03-18T02:43:19.388Z,0
2018-03-18T02:44:21.804Z,0
2018-03-18T02:45:24.215Z,0
2018-03-18T02:46:26.637Z,0
2018-03-18T02:47:29.045Z,0
2018-03-18T02:48:31.464Z,0
2018-03-18T02:49:33.886Z,0
2018-03-18T02:50:36.594Z,0
2018-03-18T02:51:39.290Z,0
2018-03-18T02:52:41.708Z,0
2018-03-18T02:53:44.118Z,0
2018-03-18T02:54:46.540Z,0
2018-03-18T02:55:48.957Z,0
2018-03-18T02:56:51.367Z,0
2018-03-18T02:57:53.775Z,0
2018-03-18T02:58:56.197Z,0
2018-03-18T02:59:58.602Z,0
2018-03-18T03:01:01.024Z,0
2018-03-18T03:02:03.733Z,0
2018-03-18T03:03:06.149Z,0
2018-03-18T03:04:08.577Z,0
2018-03-18T03:05:10.986Z,0
2018-03-18T03:06:13.399Z,0
2018-03-18T03:07:16.108Z,0
2018-03-18T03:08:18.525Z,0
2018-03-18T03:09:20.948Z,0
2018-03-18T03:10:23.359Z,0
2018-03-18T03:11:25.772Z,0
2018-03-18T03:12:28.187Z,0
2018-03-18T03:13:30.592Z,0
2018-03-18T03:14:33.016Z,0
2018-03-18T03:15:35.723Z,0
2018-03-18T03:16:38.417Z,0
2018-03-18T03:17:40.834Z,0
2018-03-18T03:18:43.247Z,0
2018-03-18T03:19:45.658Z,0
2018-03-18T03:20:48.076Z,0
2018-03-18T03:21:50.476Z,0
2018-03-18T03:22:52.897Z,0
2018-03-18T03:23:55.307Z,0
2018-03-18T03:24:57.732Z,0
2018-03-18T03:26:00.138Z,0
2018-03-18T03:27:02.830Z,0
2018-03-18T03:28:05.243Z,0
2018-03-18T03:29:07.668Z,0
2018-03-18T03:30:10.077Z,0
2018-03-18T03:31:12.507Z,0
2018-03-18T03:32:15.229Z,0
2018-03-18T03:33:17.644Z,0
2018-03-18T03:34:20.064Z,0
2018-03-18T03:35:22.478Z,0
2018-03-18T03:36:24.881Z,0
2018-03-18T03:37:27.299Z,0
2018-03-18T03:38:29.711Z,0
2018-03-18T03:39:32.125Z,0
2018-03-18T03:40:34.535Z,0
2018-03-18T03:41:36.952Z,0
2018-03-18T03:42:39.657Z,0
2018-03-18T03:43:42.081Z,0
2018-03-18T03:44:44.488Z,0
2018-03-18T03:45:46.904Z,0
2018-03-18T03:46:49.318Z,0
2018-03-18T03:47:51.721Z,0
2018-03-18T03:48:54.141Z,0
2018-03-18T03:49:56.860Z,0
2018-03-18T03:50:59.273Z,0
2018-03-18T03:52:01.982Z,0
2018-03-18T03:53:04.388Z,0
2018-03-18T03:54:07.117Z,0
2018-03-18T03:55:09.832Z,0
2018-03-18T03:56:12.527Z,0
2018-03-18T03:57:14.944Z,0
2018-03-18T03:58:17.362Z,0
2018-03-18T03:59:19.769Z,0
2018-03-18T04:00:22.197Z,0
2018-03-18T04:01:24.606Z,0
2018-03-18T04:02:27.009Z,0
2018-03-18T04:03:29.428Z,0
2018-03-18T04:04:32.130Z,0
2018-03-18T04:05:34.544Z,0
2018-03-18T04:06:36.958Z,0
2018-03-18T04:07:39.362Z,0
2018-03-18T04:08:41.776Z,0
2018-03-18T04:09:44.202Z,0
2018-03-18T04:10:46.605Z,0
2018-03-18T04:11:49.315Z,0
2018-03-18T04:12:51.731Z,0
2018-03-18T04:13:54.148Z,0
2018-03-18T04:14:56.562Z,0
2018-03-18T04:15:58.972Z,0
2018-03-18T04:17:01.391Z,0
2018-03-18T04:18:04.396Z,0
2018-03-18T04:19:06.817Z,0
2018-03-18T04:20:09.224Z,0
2018-03-18T04:21:11.645Z,0
2018-03-18T04:22:14.055Z,0
2018-03-18T04:23:16.473Z,0
2018-03-18T04:24:18.883Z,0
2018-03-18T04:25:21.306Z,0
2018-03-18T04:26:24.009Z,0
2018-03-18T04:27:26.410Z,0
2018-03-18T04:28:28.837Z,0
2018-03-18T04:29:31.246Z,0
2018-03-18T04:30:33.661Z,0
2018-03-18T04:31:36.068Z,0
2018-03-18T04:32:38.488Z,0
2018-03-18T04:33:40.898Z,0
2018-03-18T04:34:43.316Z,0
2018-03-18T04:35:46.014Z,0
2018-03-18T04:36:48.718Z,0
2018-03-18T04:37:51.140Z,0
2018-03-18T04:38:53.555Z,0
2018-03-18T04:39:55.968Z,0
2018-03-18T04:40:58.398Z,0
2018-03-18T04:42:00.809Z,0
2018-03-18T04:43:03.222Z,0
2018-03-18T04:44:05.633Z,0
2018-03-18T04:45:08.050Z,0
2018-03-18T04:46:10.468Z,0
2018-03-18T04:47:12.874Z,0
2018-03-18T04:48:15.283Z,0
2018-03-18T04:49:17.695Z,0
2018-03-18T04:50:20.114Z,0
2018-03-18T04:51:22.833Z,0
2018-03-18T04:52:25.238Z,0
2018-03-18T04:53:27.658Z,0
2018-03-18T04:54:30.072Z,0
2018-03-18T04:55:32.490Z,0
2018-03-18T04:56:34.913Z,0
2018-03-18T04:57:37.323Z,0
2018-03-18T04:58:39.737Z,0
2018-03-18T04:59:42.158Z,0
2018-03-18T05:00:44.577Z,0
2018-03-18T05:01:46.978Z,0
2018-03-18T05:02:49.713Z,0
2018-03-18T05:03:52.121Z,0
2018-03-18T05:04:54.820Z,0
2018-03-18T05:05:57.227Z,0
2018-03-18T05:06:59.639Z,0
2018-03-18T05:08:02.336Z,0
2018-03-18T05:09:04.756Z,0
2018-03-18T05:10:07.162Z,0
2018-03-18T05:11:09.862Z,0
2018-03-18T05:12:12.561Z,0
2018-03-18T05:13:14.974Z,0
2018-03-18T05:14:17.384Z,1
2018-03-18T05:15:19.793Z,1
2018-03-18T05:16:22.496Z,1
2018-03-18T05:17:24.895Z,1
2018-03-18T05:18:27.312Z,1
2018-03-18T05:19:30.012Z,1
2018-03-18T05:20:32.422Z,2
2018-03-18T05:21:34.859Z,2
2018-03-18T05:22:37.256Z,2
2018-03-18T05:23:39.938Z,2
2018-03-18T05:24:42.652Z,2
2018-03-18T05:25:45.051Z,3
2018-03-18T05:26:47.775Z,3
2018-03-18T05:27:50.200Z,3
2018-03-18T05:28:52.611Z,4
2018-03-18T05:29:55.027Z,4
2018-03-18T05:30:57.438Z,4
2018-03-18T05:32:00.128Z,4
2018-03-18T05:33:02.598Z,5
2018-03-18T05:34:04.966Z,5
2018-03-18T05:35:07.652Z,5
2018-03-18T05:36:10.068Z,6
2018-03-18T05:37:12.487Z,6
2018-03-18T05:38:15.180Z,6
2018-03-18T05:39:17.605Z,7
2018-03-18T05:40:20.026Z,7
2018-03-18T05:41:22.436Z,8
2018-03-18T05:42:24.846Z,8
2018-03-18T05:43:27.543Z,8
2018-03-18T05:44:30.262Z,9
2018-03-18T05:45:32.667Z,9
2018-03-18T05:46:35.088Z,10
2018-03-18T05:47:37.502Z,10
2018-03-18T05:48:39.912Z,11
2018-03-18T05:49:42.350Z,11
2018-03-18T05:50:44.755Z,11
2018-03-18T05:51:47.463Z,12
2018-03-18T05:52:50.176Z,12
2018-03-18T05:53:52.874Z,13
2018-03-18T05:54:55.276Z,13
2018-03-18T05:55:57.979Z,13
2018-03-18T05:57:00.395Z,14
2018-03-18T05:58:02.801Z,14
2018-03-18T05:59:05.229Z,15
2018-03-18T06:00:07.630Z,15
2018-03-18T06:01:10.047Z,16
2018-03-18T06:02:12.751Z,16
2018-03-18T06:03:15.454Z,16
2018-03-18T06:04:18.153Z,17
2018-03-18T06:05:20.572Z,17
2018-03-18T06:06:22.972Z,18
2018-03-18T06:07:25.390Z,18
2018-03-18T06:08:27.803Z,18
2018-03-18T06:09:30.214Z,19
2018-03-18T06:10:32.627Z,19
2018-03-18T06:11:35.046Z,20
2018-03-18T06:12:37.449Z,20
2018-03-18T06:13:40.190Z,20
2018-03-18T06:14:42.603Z,21
2018-03-18T06:15:45.014Z,21
2018-03-18T06:16:47.435Z,22
2018-03-18T06:17:49.843Z,21
2018-03-18T06:18:52.252Z,22
2018-03-18T06:19:54.666Z,22
2018-03-18T06:20:57.070Z,22
2018-03-18T06:21:59.486Z,23
2018-03-18T06:23:01.912Z,23
2018-03-18T06:24:04.319Z,23
2018-03-18T06:25:06.741Z,24
2018-03-18T06:26:09.157Z,24
2018-03-18T06:27:11.565Z,24
2018-03-18T06:28:14.273Z,25
2018-03-18T06:29:16.687Z,25
2018-03-18T06:30:19.109Z,26
2018-03-18T06:31:21.534Z,26
2018-03-18T06:32:23.933Z,26
2018-03-18T06:33:26.352Z,27
2018-03-18T06:34:29.045Z,27
2018-03-18T06:35:31.459Z,27
2018-03-18T06:36:33.867Z,28
2018-03-18T06:37:36.279Z,28
2018-03-18T06:38:38.700Z,28
2018-03-18T06:39:41.116Z,29
2018-03-18T06:40:43.529Z,29
2018-03-18T06:41:45.941Z,29
2018-03-18T06:42:48.353Z,30
2018-03-18T06:43:50.768Z,30
2018-03-18T06:44:53.300Z,30
2018-03-18T06:45:56.226Z,31
2018-03-18T06:46:59.031Z,32
2018-03-18T06:48:01.672Z,31
2018-03-18T06:49:04.783Z,32
2018-03-18T06:50:07.246Z,32
2018-03-18T06:51:09.991Z,32
2018-03-18T06:52:12.409Z,33
2018-03-18T06:53:14.819Z,33
2018-03-18T06:54:17.228Z,33
2018-03-18T06:55:19.925Z,34
2018-03-18T06:56:22.357Z,34
2018-03-18T06:57:24.769Z,34
2018-03-18T06:58:27.174Z,35
2018-03-18T06:59:29.596Z,35
2018-03-18T07:00:32.302Z,35
2018-03-18T07:01:34.728Z,35
2018-03-18T07:02:37.134Z,36
2018-03-18T07:03:39.840Z,36
2018-03-18T07:04:42.252Z,36
2018-03-18T07:05:44.684Z,37
2018-03-18T07:06:47.094Z,37
2018-03-18T07:07:49.497Z,37
2018-03-18T07:08:51.909Z,38
2018-03-18T07:09:54.620Z,38
2018-03-18T07:10:57.031Z,38
2018-03-18T07:11:59.727Z,39
2018-03-18T07:13:02.447Z,39
2018-03-18T07:14:04.855Z,39
2018-03-18T07:15:07.264Z,39
2018-03-18T07:16:09.682Z,40
2018-03-18T07:17:12.094Z,40
2018-03-18T07:18:14.511Z,40
2018-03-18T07:19:16.917Z,41
2018-03-18T07:20:19.324Z,41
2018-03-18T07:21:21.744Z,41
2018-03-18T07:22:24.154Z,42
2018-03-18T07:23:26.570Z,42
2018-03-18T07:24:28.993Z,42
2018-03-18T07:25:31.448Z,42
2018-03-18T07:26:33.821Z,43
2018-03-18T07:27:36.248Z,43
2018-03-18T07:28:38.662Z,43
2018-03-18T07:29:41.080Z,43
2018-03-18T07:30:43.507Z,44
2018-03-18T07:31:46.485Z,44
2018-03-18T07:32:48.906Z,44
2018-03-18T07:33:51.322Z,45
2018-03-18T07:34:53.736Z,45
2018-03-18T07:35:56.147Z,45
2018-03-18T07:36:58.567Z,45
2018-03-18T07:38:01.294Z,46
2018-03-18T07:39:03.698Z,46
2018-03-18T07:40:06.124Z,46
2018-03-18T07:41:08.530Z,47
2018-03-18T07:42:11.263Z,47
2018-03-18T07:43:13.673Z,48
2018-03-18T07:44:16.093Z,50
2018-03-18T07:45:18.786Z,51
2018-03-18T07:46:21.215Z,85
2018-03-18T07:47:23.633Z,155
2018-03-18T07:48:26.042Z,193
2018-03-18T07:49:28.457Z,198
2018-03-18T07:50:31.253Z,185
2018-03-18T07:51:33.608Z,180
2018-03-18T07:52:36.320Z,198
2018-03-18T07:53:38.735Z,190
2018-03-18T07:54:41.158Z,174
2018-03-18T07:55:43.586Z,209
2018-03-18T07:56:45.998Z,230
2018-03-18T07:57:48.408Z,212
2018-03-18T07:58:51.119Z,219
2018-03-18T07:59:53.832Z,221
2018-03-18T08:00:56.240Z,200
2018-03-18T08:01:58.712Z,221
2018-03-18T08:03:01.370Z,223
2018-03-18T08:04:04.082Z,214
2018-03-18T08:05:06.500Z,224
2018-03-18T08:06:09.208Z,255
2018-03-18T08:07:11.914Z,260
2018-03-18T08:08:14.325Z,252
2018-03-18T08:09:16.742Z,249
2018-03-18T08:10:19.449Z,226
2018-03-18T08:11:21.872Z,226
2018-03-18T08:12:24.282Z,252
2018-03-18T08:13:26.694Z,288
2018-03-18T08:14:29.125Z,275
2018-03-18T08:15:31.547Z,248
2018-03-18T08:16:33.963Z,254
2018-03-18T08:17:36.387Z,261
2018-03-18T08:18:38.815Z,273
2018-03-18T08:19:41.232Z,267
2018-03-18T08:20:43.653Z,281
2018-03-18T08:21:46.055Z,258
2018-03-18T08:22:48.787Z,256
2018-03-18T08:23:51.200Z,270
2018-03-18T08:24:53.899Z,261
2018-03-18T08:25:56.329Z,279
2018-03-18T08:26:58.732Z,279
2018-03-18T08:28:01.448Z,270
2018-03-18T08:29:03.876Z,296
2018-03-18T08:30:06.304Z,281
2018-03-18T08:31:08.728Z,283
2018-03-18T08:32:11.152Z,275
2018-03-18T08:33:13.575Z,284
2018-03-18T08:34:16.375Z,272
2018-03-18T08:35:18.748Z,251
2018-03-18T08:36:21.156Z,277
2018-03-18T08:37:23.591Z,288
2018-03-18T08:38:26.294Z,316
2018-03-18T08:39:28.725Z,330
2018-03-18T08:40:31.142Z,332
2018-03-18T08:41:33.572Z,305
2018-03-18T08:42:36.279Z,296
2018-03-18T08:43:38.706Z,280
2018-03-18T08:44:41.137Z,270
2018-03-18T08:45:43.556Z,271
2018-03-18T08:46:46.018Z,280
2018-03-18T08:47:48.411Z,306
2018-03-18T08:48:50.834Z,328
2018-03-18T08:49:53.251Z,325
2018-03-18T08:50:55.670Z,329
2018-03-18T08:51:58.384Z,327
2018-03-18T08:53:00.813Z,342
2018-03-18T08:54:03.237Z,364
2018-03-18T08:55:05.658Z,345
2018-03-18T08:56:08.085Z,338
2018-03-18T08:57:10.927Z,302
2018-03-18T08:58:13.354Z,302
2018-03-18T08:59:15.778Z,315
2018-03-18T09:00:18.216Z,301
2018-03-18T09:01:20.679Z,278
2018-03-18T09:02:23.098Z,288
2018-03-18T09:03:25.522Z,324
2018-03-18T09:04:27.942Z,330
2018-03-18T09:05:30.660Z,374
2018-03-18T09:06:33.709Z,353
2018-03-18T09:07:36.400Z,336
2018-03-18T09:08:39.433Z,311
2018-03-18T09:09:42.134Z,323
2018-03-18T09:10:45.113Z,333
2018-03-18T09:11:48.716Z,313
2018-03-18T09:12:53.051Z,336
2018-03-18T09:13:56.248Z,383
2018-03-18T09:14:59.436Z,330
2018-03-18T09:16:01.869Z,351
2018-03-18T09:17:04.294Z,359
2018-03-18T09:18:06.715Z,332
2018-03-18T09:19:09.449Z,373
2018-03-18T09:20:12.175Z,377
2018-03-18T09:21:14.601Z,377
2018-03-18T09:22:17.312Z,360
2018-03-18T09:23:19.732Z,355
2018-03-18T09:24:22.165Z,378
2018-03-18T09:25:24.587Z,365
2018-03-18T09:26:27.008Z,364
2018-03-18T09:27:29.425Z,370
2018-03-18T09:28:31.858Z,376
2018-03-18T09:29:34.283Z,377
2018-03-18T09:30:36.718Z,379
2018-03-18T09:31:39.145Z,416
2018-03-18T09:32:41.571Z,360
2018-03-18T09:33:44.293Z,342
2018-03-18T09:34:46.720Z,379
2018-03-18T09:35:49.151Z,369
2018-03-18T09:36:51.564Z,374
2018-03-18T09:37:54.001Z,396
2018-03-18T09:38:56.423Z,372
2018-03-18T09:39:58.848Z,358
2018-03-18T09:41:01.278Z,378
2018-03-18T09:42:03.712Z,346
2018-03-18T09:43:06.429Z,351
2018-03-18T09:44:09.143Z,345
2018-03-18T09:45:11.847Z,330
2018-03-18T09:46:14.280Z,356
2018-03-18T09:47:17.287Z,372
2018-03-18T09:48:20.087Z,377
2018-03-18T09:49:22.509Z,359
2018-03-18T09:50:24.936Z,328
2018-03-18T09:51:27.351Z,336
2018-03-18T09:52:29.790Z,367
2018-03-18T09:53:32.208Z,353
2018-03-18T09:54:34.634Z,320
2018-03-18T09:55:37.062Z,367
2018-03-18T09:56:39.492Z,401
2018-03-18T09:57:41.915Z,439
2018-03-18T09:58:44.643Z,447
2018-03-18T09:59:47.057Z,414
2018-03-18T10:00:49.491Z,407
2018-03-18T10:01:51.916Z,476
2018-03-18T10:02:54.345Z,521
2018-03-18T10:03:56.771Z,543
2018-03-18T10:04:59.202Z,519
2018-03-18T10:06:01.926Z,475
2018-03-18T10:07:04.651Z,434
2018-03-18T10:08:07.381Z,426
2018-03-18T10:09:09.795Z,397
2018-03-18T10:10:12.227Z,407
2018-03-18T10:11:14.671Z,371
2018-03-18T10:12:17.087Z,359
2018-03-18T10:13:19.516Z,348
2018-03-18T10:14:21.937Z,313
2018-03-18T10:15:24.563Z,322
2018-03-18T10:16:27.005Z,368
2018-03-18T10:17:29.432Z,382
2018-03-18T10:18:31.852Z,390
2018-03-18T10:19:34.880Z,385
2018-03-18T10:20:37.883Z,402
2018-03-18T10:21:40.328Z,408
2018-03-18T10:22:42.752Z,382
2018-03-18T10:23:45.180Z,396
2018-03-18T10:24:47.606Z,403
2018-03-18T10:25:50.048Z,387
2018-03-18T10:26:52.477Z,434
2018-03-18T10:27:54.900Z,428
2018-03-18T10:28:57.633Z,424
2018-03-18T10:30:00.644Z,446
2018-03-18T10:31:03.077Z,425
2018-03-18T10:32:05.816Z,443
2018-03-18T10:33:08.228Z,467
2018-03-18T10:34:10.664Z,468
2018-03-18T10:35:13.097Z,510
2018-03-18T10:36:15.835Z,479
2018-03-18T10:37:18.531Z,446
2018-03-18T10:38:20.959Z,420
2018-03-18T10:39:23.396Z,428
2018-03-18T10:40:26.123Z,460
2018-03-18T10:41:28.548Z,472
2018-03-18T10:42:30.997Z,476
2018-03-18T10:43:33.407Z,438
2018-03-18T10:44:35.857Z,389
2018-03-18T10:45:38.286Z,366
2018-03-18T10:46:40.718Z,446
2018-03-18T10:47:43.150Z,456
2018-03-18T10:48:45.969Z,408
2018-03-18T10:49:48.636Z,459
2018-03-18T10:50:51.072Z,497
2018-03-18T10:51:53.506Z,462
2018-03-18T10:52:56.226Z,503
2018-03-18T10:53:58.952Z,481
2018-03-18T10:55:01.382Z,440
2018-03-18T10:56:03.818Z,435
2018-03-18T10:57:06.253Z,423
2018-03-18T10:58:08.677Z,442
2018-03-18T10:59:11.410Z,474
2018-03-18T11:00:13.835Z,448
2018-03-18T11:01:16.268Z,432
2018-03-18T11:02:18.986Z,475
2018-03-18T11:03:21.425Z,451
2018-03-18T11:04:23.849Z,523
2018-03-18T11:05:26.287Z,526
2018-03-18T11:06:28.722Z,498
2018-03-18T11:07:31.152Z,490
2018-03-18T11:08:33.568Z,515
2018-03-18T11:09:36.013Z,524
2018-03-18T11:10:38.450Z,541
2018-03-18T11:11:41.175Z,479
2018-03-18T11:12:43.599Z,475
2018-03-18T11:13:46.028Z,493
2018-03-18T11:14:48.458Z,503
2018-03-18T11:15:50.900Z,451
2018-03-18T11:16:53.615Z,446
2018-03-18T11:17:56.042Z,469
2018-03-18T11:18:58.761Z,495
2018-03-18T11:20:01.474Z,466
2018-03-18T11:21:03.917Z,480
2018-03-18T11:22:06.345Z,528
2018-03-18T11:23:08.767Z,561
2018-03-18T11:24:11.207Z,523
2018-03-18T11:25:13.647Z,528
2018-03-18T11:26:16.076Z,571
2018-03-18T11:27:18.501Z,572
2018-03-18T11:28:21.224Z,624
2018-03-18T11:29:23.652Z,615
2018-03-18T11:30:26.097Z,601
2018-03-18T11:31:28.521Z,539
2018-03-18T11:32:30.945Z,521
2018-03-18T11:33:33.529Z,535
2018-03-18T11:34:36.432Z,490
2018-03-18T11:35:40.133Z,491
2018-03-18T11:36:44.116Z,406
2018-03-18T11:37:47.712Z,450
2018-03-18T11:38:52.277Z,531
2018-03-18T11:39:55.459Z,475
2018-03-18T11:40:58.190Z,471
2018-03-18T11:42:00.623Z,494
2018-03-18T11:43:03.054Z,506
2018-03-18T11:44:05.488Z,502
2018-03-18T11:45:08.205Z,509
2018-03-18T11:46:10.640Z,573
2018-03-18T11:47:13.072Z,505
2018-03-18T11:48:15.782Z,497
2018-03-18T11:49:18.217Z,496
2018-03-18T11:50:20.643Z,431
2018-03-18T11:51:23.072Z,461
2018-03-18T11:52:25.501Z,468
2018-03-18T11:53:27.935Z,428
2018-03-18T11:54:30.355Z,455
2018-03-18T11:55:32.791Z,439
2018-03-18T11:56:35.225Z,444
2018-03-18T11:57:37.658Z,445
2018-03-18T11:58:40.094Z,434
2018-03-18T11:59:42.525Z,433
2018-03-18T12:00:44.956Z,432
2018-03-18T12:01:47.391Z,468
2018-03-18T12:02:49.822Z,422
2018-03-18T12:03:52.534Z,409
2018-03-18T12:04:54.960Z,439
2018-03-18T12:05:57.402Z,454
2018-03-18T12:06:59.826Z,470
2018-03-18T12:08:02.265Z,416
2018-03-18T12:09:04.695Z,411
2018-03-18T12:10:07.734Z,448
2018-03-18T12:11:10.156Z,435
2018-03-18T12:12:12.889Z,418
2018-03-18T12:13:15.597Z,467
2018-03-18T12:14:18.036Z,483
2018-03-18T12:15:20.476Z,442
2018-03-18T12:16:22.899Z,462
2018-03-18T12:17:25.327Z,476
2018-03-18T12:18:27.754Z,429
2018-03-18T12:19:30.199Z,405
2018-03-18T12:20:32.612Z,410
2018-03-18T12:21:35.043Z,407
2018-03-18T12:22:37.469Z,416
2018-03-18T12:23:39.906Z,385
2018-03-18T12:24:42.628Z,410
2018-03-18T12:25:45.055Z,398
2018-03-18T12:26:47.485Z,446
2018-03-18T12:27:50.228Z,454
2018-03-18T12:28:52.661Z,459
2018-03-18T12:29:55.094Z,461
2018-03-18T12:30:58.177Z,472
2018-03-18T12:32:01.192Z,440
2018-03-18T12:33:04.825Z,425
2018-03-18T12:34:08.241Z,416
2018-03-18T12:35:11.839Z,414
2018-03-18T12:36:14.373Z,412
2018-03-18T12:37:17.122Z,386
2018-03-18T12:38:19.548Z,360
2018-03-18T12:39:21.978Z,376
2018-03-18T12:40:24.414Z,355
2018-03-18T12:41:26.842Z,344
2018-03-18T12:42:29.564Z,341
2018-03-18T12:43:32.005Z,347
2018-03-18T12:44:34.427Z,354
2018-03-18T12:45:36.858Z,386
2018-03-18T12:46:39.304Z,391
2018-03-18T12:47:41.720Z,347
2018-03-18T12:48:44.158Z,336
2018-03-18T12:49:46.603Z,372
2018-03-18T12:50:49.020Z,377
2018-03-18T12:51:51.455Z,386
2018-03-18T12:52:53.891Z,417
2018-03-18T12:53:56.323Z,446
2018-03-18T12:54:58.759Z,451
2018-03-18T12:56:01.479Z,447
2018-03-18T12:57:03.913Z,442
2018-03-18T12:58:06.640Z,441
2018-03-18T12:59:09.068Z,420
2018-03-18T13:00:11.500Z,440
2018-03-18T13:01:13.934Z,459
2018-03-18T13:02:16.374Z,452
2018-03-18T13:03:19.093Z,451
2018-03-18T13:04:21.529Z,437
2018-03-18T13:05:23.965Z,408
2018-03-18T13:06:26.400Z,401
2018-03-18T13:07:28.838Z,365
2018-03-18T13:08:31.269Z,351
2018-03-18T13:09:33.710Z,363
2018-03-18T13:10:36.130Z,290
2018-03-18T13:11:38.628Z,273
2018-03-18T13:12:41.021Z,304
2018-03-18T13:13:43.449Z,319
2018-03-18T13:14:45.891Z,267
2018-03-18T13:15:48.327Z,331
2018-03-18T13:16:50.774Z,359
2018-03-18T13:17:53.206Z,348
2018-03-18T13:18:55.934Z,369
2018-03-18T13:19:58.365Z,315
2018-03-18T13:21:00.807Z,286
2018-03-18T13:22:03.230Z,296
2018-03-18T13:23:05.664Z,371
2018-03-18T13:24:08.424Z,205
2018-03-18T13:25:10.859Z,237
2018-03-18T13:26:13.301Z,255
2018-03-18T13:27:15.722Z,331
2018-03-18T13:28:18.157Z,272
2018-03-18T13:29:20.606Z,319
2018-03-18T13:30:23.044Z,322
2018-03-18T13:31:25.467Z,326
2018-03-18T13:32:27.908Z,333
2018-03-18T13:33:30.640Z,335
2018-03-18T13:34:33.075Z,342
2018-03-18T13:35:35.512Z,352
2018-03-18T13:36:38.237Z,322
2018-03-18T13:37:40.958Z,316
2018-03-18T13:38:43.393Z,301
2018-03-18T13:39:45.820Z,320
2018-03-18T13:40:48.255Z,338
2018-03-18T13:41:50.977Z,344
2018-03-18T13:42:53.396Z,318
2018-03-18T13:43:55.841Z,313
2018-03-18T13:44:58.271Z,272
2018-03-18T13:46:00.716Z,281
2018-03-18T13:47:03.150Z,283
2018-03-18T13:48:05.578Z,250
2018-03-18T13:49:08.019Z,230
2018-03-18T13:50:10.453Z,272
2018-03-18T13:51:12.893Z,237
2018-03-18T13:52:15.330Z,248
2018-03-18T13:53:17.754Z,237
2018-03-18T13:54:20.276Z,199
2018-03-18T13:55:22.922Z,116
2018-03-18T13:56:25.350Z,225
2018-03-18T13:57:27.783Z,197
2018-03-18T13:58:30.226Z,234
2018-03-18T13:59:32.657Z,230
2018-03-18T14:00:35.088Z,240
2018-03-18T14:01:37.536Z,194
2018-03-18T14:02:39.940Z,254
2018-03-18T14:03:42.388Z,185
2018-03-18T14:04:44.816Z,227
2018-03-18T14:05:47.250Z,218
2018-03-18T14:06:49.970Z,166
2018-03-18T14:07:52.678Z,213
2018-03-18T14:08:55.116Z,201
2018-03-18T14:09:57.555Z,218
2018-03-18T14:10:59.990Z,218
2018-03-18T14:12:02.431Z,224
2018-03-18T14:13:05.167Z,245
2018-03-18T14:14:07.590Z,264
2018-03-18T14:15:10.040Z,232
2018-03-18T14:16:12.455Z,230
2018-03-18T14:17:14.880Z,239
2018-03-18T14:18:17.319Z,202
2018-03-18T14:19:19.738Z,242
2018-03-18T14:20:22.179Z,235
2018-03-18T14:21:24.624Z,215
2018-03-18T14:22:27.047Z,238
2018-03-18T14:23:29.482Z,270
2018-03-18T14:24:31.906Z,161
2018-03-18T14:25:34.624Z,157
2018-03-18T14:26:37.067Z,165
2018-03-18T14:27:39.505Z,161
2018-03-18T14:28:41.920Z,129
2018-03-18T14:29:44.364Z,168
2018-03-18T14:30:46.787Z,200
2018-03-18T14:31:49.214Z,200
2018-03-18T14:32:51.940Z,184
2018-03-18T14:33:54.378Z,167
2018-03-18T14:34:57.097Z,192
2018-03-18T14:35:59.518Z,213
2018-03-18T14:37:01.952Z,222
2018-03-18T14:38:04.686Z,188
2018-03-18T14:39:07.718Z,206
2018-03-18T14:40:10.147Z,209
2018-03-18T14:41:12.861Z,160
2018-03-18T14:42:15.306Z,164
2018-03-18T14:43:17.748Z,168
2018-03-18T14:44:20.219Z,195
2018-03-18T14:45:22.604Z,189
2018-03-18T14:46:25.041Z,195
2018-03-18T14:47:27.488Z,186
2018-03-18T14:48:29.911Z,186